Portada
METAR-TAF:

METAR-TAF

Aeroports :

Grove, Oklahoma, Estats Units d'Amèrica

latitud: 36-36-19N, longitud: 094-44-19W, altitud: 254 m

Observació

L'informe es va fer fa 34 minuts, a les 06:15 UTC
Vent calma
Temperatura 22°C
Humitat 100%
Pressió 1023 hPa
Visibilitat: 11.3 km
Cel clar

METAR: KGMJ 200615Z AUTO 00000KT 7SM CLR 22/22 A3020 RMK AO2 TSNO

Hora: 01:49 (06:49 UTC)


TAF: manca

Observacions i pronòstics meteorològics de més de 4000 aeroports (METAR i TAF).

Les estacions disponibles són els punts grocs i vermells al mapa.

Posi el ratolí al punt desitjat per veure el nom de l'estació.

Feu clic per veure les observacions i els pronòstics meteorològics.

Per canviar el mapa: feu clic els botons verds amb una creu de color negre per apropar; al botó verd amb un guió per allunyar la imatge; o en les fletxes verdes per a mapes adjacents.


METAR-TAF: